createdAt,value
2022-07-30T00:01:51.691Z,23.06
2022-07-30T00:04:20.305Z,22.94
2022-07-30T00:06:47.079Z,22.90
2022-07-30T00:09:13.807Z,22.90
2022-07-30T00:11:40.508Z,22.88
2022-07-30T00:14:08.295Z,22.84
2022-07-30T00:16:35.006Z,22.93
2022-07-30T00:19:02.303Z,22.92
2022-07-30T00:21:35.827Z,22.76
2022-07-30T00:24:06.340Z,22.74
2022-07-30T00:26:32.986Z,22.73
2022-07-30T00:28:59.873Z,22.75
2022-07-30T00:31:26.505Z,22.65
2022-07-30T00:33:53.259Z,22.62
2022-07-30T00:36:21.020Z,22.73
2022-07-30T00:38:47.938Z,22.61
2022-07-30T00:41:15.562Z,22.59
2022-07-30T00:43:43.843Z,22.55
2022-07-30T00:46:10.602Z,22.54
2022-07-30T00:48:37.514Z,22.52
2022-07-30T00:51:04.613Z,22.56
2022-07-30T00:53:31.239Z,22.52
2022-07-30T00:55:57.980Z,22.49
2022-07-30T00:58:26.097Z,22.50
2022-07-30T01:00:53.033Z,22.50
2022-07-30T01:03:19.957Z,22.42
2022-07-30T01:05:46.633Z,22.36
2022-07-30T01:08:14.071Z,22.34
2022-07-30T01:10:40.770Z,22.31
2022-07-30T01:13:07.973Z,22.40
2022-07-30T01:15:35.098Z,22.31
2022-07-30T01:18:04.162Z,22.23
2022-07-30T01:20:38.886Z,22.15
2022-07-30T01:23:14.870Z,22.07
2022-07-30T01:25:57.091Z,22.01
2022-07-30T01:28:27.833Z,22.11
2022-07-30T01:30:55.862Z,22.13
2022-07-30T01:33:23.198Z,22.17
2022-07-30T01:35:50.842Z,22.15
2022-07-30T01:38:21.889Z,22.09
2022-07-30T01:40:51.802Z,21.99
2022-07-30T01:43:20.143Z,22.02
2022-07-30T01:45:49.913Z,21.96
2022-07-30T01:48:20.521Z,21.90
2022-07-30T01:50:51.498Z,21.87
2022-07-30T01:53:21.416Z,21.94
2022-07-30T01:55:48.541Z,21.86
2022-07-30T01:58:19.461Z,21.81
2022-07-30T02:00:49.298Z,21.88
2022-07-30T02:03:16.187Z,21.86
2022-07-30T02:05:50.698Z,21.71
2022-07-30T02:08:40.513Z,21.71
2022-07-30T02:11:09.844Z,21.70
2022-07-30T02:13:50.817Z,21.51
2022-07-30T02:16:24.822Z,21.57
2022-07-30T02:19:06.127Z,21.63
2022-07-30T02:21:50.353Z,21.59
2022-07-30T02:25:32.966Z,21.25
2022-07-30T02:28:07.084Z,21.33
2022-07-30T02:30:36.858Z,21.41
2022-07-30T02:33:10.513Z,21.34
2022-07-30T02:35:37.779Z,21.36
2022-07-30T02:38:05.566Z,21.41
2022-07-30T02:40:32.823Z,21.33
2022-07-30T02:43:01.146Z,21.36
2022-07-30T02:45:29.325Z,21.32
2022-07-30T02:48:03.159Z,21.20
2022-07-30T02:50:30.983Z,21.24
2022-07-30T02:52:59.722Z,21.19
2022-07-30T02:55:28.574Z,21.21
2022-07-30T02:57:56.443Z,21.32
2022-07-30T03:00:24.454Z,21.36
2022-07-30T03:02:56.778Z,21.18
2022-07-30T03:05:25.075Z,21.24
2022-07-30T03:07:55.406Z,21.05
2022-07-30T03:10:22.824Z,21.09
2022-07-30T03:12:50.502Z,21.07
2022-07-30T03:15:18.407Z,21.07
2022-07-30T03:17:46.442Z,21.03
2022-07-30T03:20:16.095Z,21.06
2022-07-30T03:22:45.181Z,21.07
2022-07-30T03:25:14.592Z,21.02
2022-07-30T03:27:42.979Z,21.07
2022-07-30T03:30:12.289Z,20.99
2022-07-30T03:32:39.382Z,21.02
2022-07-30T03:35:17.102Z,20.98
2022-07-30T03:37:46.265Z,21.02
2022-07-30T03:40:14.071Z,21.05
2022-07-30T03:42:41.235Z,21.05
2022-07-30T03:45:09.051Z,20.98
2022-07-30T03:47:38.783Z,20.97
2022-07-30T03:50:06.330Z,21.03
2022-07-30T03:52:38.635Z,20.86
2022-07-30T03:55:10.849Z,20.84
2022-07-30T03:57:49.868Z,20.82
2022-07-30T04:00:18.358Z,20.81
2022-07-30T04:02:49.819Z,20.79
2022-07-30T04:05:41.096Z,20.81
2022-07-30T04:08:09.129Z,20.83
2022-07-30T04:10:35.937Z,20.76
2022-07-30T04:13:09.172Z,20.81
2022-07-30T04:16:36.870Z,20.74
2022-07-30T04:18:37.843Z,20.77
2022-07-30T04:21:06.118Z,20.85
2022-07-30T04:23:33.381Z,20.84
2022-07-30T04:26:21.173Z,21.29
2022-07-30T04:29:18.244Z,22.06
2022-07-30T04:31:47.244Z,23.22
2022-07-30T04:34:32.890Z,23.90
2022-07-30T04:37:00.184Z,24.16
2022-07-30T04:39:28.220Z,23.90
2022-07-30T04:41:54.949Z,23.52
2022-07-30T04:44:34.233Z,22.95
2022-07-30T04:47:19.867Z,22.67
2022-07-30T04:50:09.070Z,22.31
2022-07-30T04:52:36.307Z,22.26
2022-07-30T04:55:07.152Z,22.14
2022-07-30T04:57:35.664Z,22.09
2022-07-30T05:00:06.860Z,22.06
2022-07-30T05:02:37.888Z,21.99
2022-07-30T05:05:05.661Z,22.00
2022-07-30T05:07:32.912Z,21.91
2022-07-30T05:10:01.843Z,21.84
2022-07-30T05:12:33.648Z,21.74
2022-07-30T05:15:01.079Z,21.75
2022-07-30T05:17:28.844Z,21.78
2022-07-30T05:19:56.381Z,21.68
2022-07-30T05:22:25.510Z,21.72
2022-07-30T05:24:52.323Z,21.69
2022-07-30T05:27:20.329Z,21.78
2022-07-30T05:29:47.092Z,21.77
2022-07-30T05:32:18.464Z,21.85
2022-07-30T05:34:49.828Z,21.87
2022-07-30T05:37:17.304Z,21.91
2022-07-30T05:40:02.764Z,21.90
2022-07-30T05:42:50.507Z,21.77
2022-07-30T05:45:19.359Z,21.76
2022-07-30T05:47:46.458Z,21.81
2022-07-30T05:50:13.377Z,22.03
2022-07-30T05:52:41.035Z,21.98
2022-07-30T05:55:27.685Z,22.01
2022-07-30T05:58:08.621Z,21.96
2022-07-30T06:00:35.731Z,21.99
2022-07-30T06:03:02.929Z,22.09
2022-07-30T06:05:49.792Z,22.10
2022-07-30T06:08:17.583Z,22.15
2022-07-30T06:10:46.233Z,22.11
2022-07-30T06:13:13.081Z,22.04
2022-07-30T06:15:40.139Z,22.24
2022-07-30T06:18:10.534Z,22.14
2022-07-30T06:20:43.285Z,22.21
2022-07-30T06:23:19.520Z,22.21
2022-07-30T06:26:06.205Z,22.31
2022-07-30T06:28:38.079Z,22.35
2022-07-30T06:31:15.103Z,22.34
2022-07-30T06:33:43.061Z,22.39
2022-07-30T06:36:13.731Z,22.50
2022-07-30T06:38:51.559Z,22.56
2022-07-30T06:41:25.682Z,22.56
2022-07-30T06:43:53.717Z,22.59
2022-07-30T06:46:39.168Z,22.71
2022-07-30T06:49:06.000Z,22.79
2022-07-30T06:51:33.308Z,22.78
2022-07-30T06:54:00.383Z,22.86
2022-07-30T06:56:37.299Z,22.86
2022-07-30T06:59:06.425Z,22.93
2022-07-30T07:02:05.006Z,22.85
2022-07-30T07:04:39.239Z,22.84
2022-07-30T07:07:12.578Z,22.93
2022-07-30T07:09:40.373Z,22.95
2022-07-30T07:12:30.010Z,23.00
2022-07-30T07:14:56.870Z,23.07
2022-07-30T07:17:23.784Z,23.12
2022-07-30T07:20:05.962Z,23.15
2022-07-30T07:22:39.985Z,23.22
2022-07-30T07:25:08.735Z,23.26
2022-07-30T07:27:36.956Z,23.26
2022-07-30T07:30:06.170Z,23.25
2022-07-30T07:32:37.325Z,23.06
2022-07-30T07:35:05.830Z,23.29
2022-07-30T07:37:34.683Z,23.32
2022-07-30T07:40:03.305Z,23.36
2022-07-30T07:42:33.455Z,23.32
2022-07-30T07:45:01.196Z,23.32
2022-07-30T07:47:43.270Z,23.30
2022-07-30T07:50:41.770Z,23.42
2022-07-30T07:53:16.133Z,23.47
2022-07-30T07:55:42.930Z,23.50
2022-07-30T07:58:13.476Z,23.53
2022-07-30T08:00:44.760Z,23.55
2022-07-30T08:03:12.008Z,23.56
2022-07-30T08:05:56.784Z,23.55
2022-07-30T08:08:45.607Z,23.60
2022-07-30T08:11:31.103Z,23.63
2022-07-30T08:14:17.737Z,23.60
2022-07-30T08:17:03.316Z,23.55
2022-07-30T08:19:51.665Z,23.64
2022-07-30T08:22:21.670Z,23.70
2022-07-30T08:24:48.417Z,23.68
2022-07-30T08:27:15.402Z,23.72
2022-07-30T08:29:42.586Z,23.72
2022-07-30T08:32:09.496Z,23.74
2022-07-30T08:34:38.816Z,23.82
2022-07-30T08:37:05.605Z,23.89
2022-07-30T08:39:34.783Z,23.92
2022-07-30T08:42:05.051Z,23.92
2022-07-30T08:44:33.139Z,23.93
2022-07-30T08:47:03.208Z,23.93
2022-07-30T08:49:48.966Z,23.98
2022-07-30T08:52:18.619Z,24.01
2022-07-30T08:54:51.712Z,24.10
2022-07-30T08:57:23.592Z,24.10
2022-07-30T08:59:59.386Z,24.13
2022-07-30T09:02:30.548Z,24.18
2022-07-30T09:05:04.748Z,24.23
2022-07-30T09:08:08.539Z,24.18
2022-07-30T09:10:35.729Z,24.22
2022-07-30T09:13:02.513Z,24.30
2022-07-30T09:15:29.477Z,24.20
2022-07-30T09:18:01.715Z,24.17
2022-07-30T09:20:34.131Z,24.25
2022-07-30T09:23:04.341Z,24.34
2022-07-30T09:25:38.120Z,24.25
2022-07-30T09:28:36.971Z,24.23
2022-07-30T09:31:53.230Z,24.21
2022-07-30T09:34:43.105Z,24.31
2022-07-30T09:37:28.592Z,24.35
2022-07-30T09:40:18.583Z,24.46
2022-07-30T09:43:11.524Z,24.52
2022-07-30T09:45:56.885Z,24.55
2022-07-30T09:48:26.731Z,24.61
2022-07-30T09:50:55.011Z,24.61
2022-07-30T09:53:24.544Z,24.56
2022-07-30T09:55:51.375Z,24.56
2022-07-30T09:58:26.501Z,24.54
2022-07-30T10:00:57.800Z,24.58
2022-07-30T10:03:46.676Z,24.48
2022-07-30T10:06:34.803Z,24.48
2022-07-30T10:09:14.082Z,24.50
2022-07-30T10:11:48.445Z,24.68
2022-07-30T10:14:15.601Z,24.64
2022-07-30T10:16:42.439Z,24.71
2022-07-30T10:19:18.071Z,24.77
2022-07-30T10:22:05.270Z,24.75
2022-07-30T10:24:50.499Z,24.75
2022-07-30T10:27:37.223Z,24.82
2022-07-30T10:30:24.905Z,24.83
2022-07-30T10:32:54.889Z,24.86
2022-07-30T10:35:34.831Z,24.90
2022-07-30T10:38:08.543Z,24.93
2022-07-30T10:40:39.509Z,24.96
2022-07-30T10:43:31.902Z,24.95
2022-07-30T10:46:23.298Z,25.01
2022-07-30T10:48:50.209Z,25.11
2022-07-30T10:51:25.570Z,25.09
2022-07-30T10:54:01.646Z,25.15
2022-07-30T10:56:28.410Z,25.06
2022-07-30T10:59:00.250Z,25.04
2022-07-30T11:01:51.692Z,25.01
2022-07-30T11:04:29.544Z,25.02
2022-07-30T11:07:49.501Z,24.96
2022-07-30T11:10:37.229Z,25.02
2022-07-30T11:13:05.845Z,25.22
2022-07-30T11:15:59.703Z,25.23
2022-07-30T11:18:26.764Z,25.18
2022-07-30T11:21:24.666Z,25.11
2022-07-30T11:23:54.824Z,25.23
2022-07-30T11:26:41.594Z,25.13
2022-07-30T11:29:50.528Z,25.04
2022-07-30T11:32:32.468Z,25.09
2022-07-30T11:35:24.281Z,25.15
2022-07-30T11:38:12.945Z,25.19
2022-07-30T11:41:02.405Z,25.30
2022-07-30T11:43:35.564Z,25.37
2022-07-30T11:46:16.471Z,25.42
2022-07-30T11:49:08.197Z,25.40
2022-07-30T11:51:41.997Z,25.51
2022-07-30T11:54:10.712Z,25.58
2022-07-30T11:56:37.557Z,25.64
2022-07-30T11:59:05.729Z,25.68
2022-07-30T12:01:33.409Z,25.68
2022-07-30T12:04:04.664Z,25.69
2022-07-30T12:06:36.394Z,25.71
2022-07-30T12:09:03.339Z,25.72
2022-07-30T12:11:33.647Z,25.70
2022-07-30T12:14:02.000Z,25.68
2022-07-30T12:16:30.715Z,25.70
2022-07-30T12:19:05.191Z,25.73
2022-07-30T12:21:32.183Z,25.84
2022-07-30T12:24:02.167Z,25.92
2022-07-30T12:26:34.074Z,25.98
2022-07-30T12:29:04.988Z,25.95
2022-07-30T12:31:33.503Z,25.90
2022-07-30T12:34:00.725Z,25.85
2022-07-30T12:36:34.021Z,25.87
2022-07-30T12:39:01.975Z,25.91
2022-07-30T12:41:45.892Z,25.87
2022-07-30T12:44:41.552Z,25.82
2022-07-30T12:47:26.519Z,25.83
2022-07-30T12:50:00.704Z,25.91
2022-07-30T12:52:31.675Z,25.95
2022-07-30T12:55:02.804Z,25.90
2022-07-30T12:58:07.551Z,25.80
2022-07-30T13:00:43.938Z,25.77
2022-07-30T13:03:40.742Z,25.80
2022-07-30T13:06:33.485Z,25.91
2022-07-30T13:09:00.701Z,25.98
2022-07-30T13:11:38.428Z,26.03
2022-07-30T13:14:05.429Z,26.09
2022-07-30T13:16:34.744Z,26.13
2022-07-30T13:19:03.530Z,26.18
2022-07-30T13:21:30.273Z,26.22
2022-07-30T13:23:57.063Z,26.22
2022-07-30T13:26:23.807Z,26.24
2022-07-30T13:29:01.293Z,26.20
2022-07-30T13:31:28.478Z,26.20
2022-07-30T13:34:09.424Z,26.14
2022-07-30T13:36:36.239Z,26.15
2022-07-30T13:39:02.970Z,26.19
2022-07-30T13:41:36.002Z,26.20
2022-07-30T13:44:03.187Z,26.23
2022-07-30T13:46:29.940Z,26.22
2022-07-30T13:48:56.679Z,26.19
2022-07-30T13:51:23.457Z,26.15
2022-07-30T13:53:52.315Z,26.16
2022-07-30T13:56:19.699Z,26.20
2022-07-30T13:58:47.544Z,26.20
2022-07-30T14:01:15.807Z,26.18
2022-07-30T14:03:49.907Z,26.13
2022-07-30T14:06:22.490Z,26.17
2022-07-30T14:08:49.264Z,26.28
2022-07-30T14:11:18.500Z,26.26
2022-07-30T14:13:45.855Z,26.27
2022-07-30T14:16:28.862Z,26.27
2022-07-30T14:19:00.896Z,26.19
2022-07-30T14:21:27.542Z,26.26
2022-07-30T14:23:55.038Z,26.33
2022-07-30T14:26:21.697Z,26.33
2022-07-30T14:28:48.377Z,26.41
2022-07-30T14:31:16.703Z,26.47
2022-07-30T14:33:43.462Z,26.55
2022-07-30T14:36:10.234Z,26.63
2022-07-30T14:38:39.704Z,26.63
2022-07-30T14:41:07.163Z,26.69
2022-07-30T14:43:33.850Z,26.69
2022-07-30T14:46:02.530Z,26.70
2022-07-30T14:48:29.303Z,26.65
2022-07-30T14:51:13.382Z,26.64
2022-07-30T14:53:42.623Z,26.68
2022-07-30T14:56:14.139Z,26.76
2022-07-30T14:58:41.622Z,26.80
2022-07-30T15:01:16.667Z,26.87
2022-07-30T15:03:44.781Z,26.91
2022-07-30T15:06:12.705Z,26.92
2022-07-30T15:08:39.380Z,26.95
2022-07-30T15:11:08.069Z,26.99
2022-07-30T15:13:36.356Z,27.01
2022-07-30T15:16:03.109Z,27.04
2022-07-30T15:18:29.853Z,27.03
2022-07-30T15:20:58.828Z,27.08
2022-07-30T15:23:25.582Z,27.06
2022-07-30T15:25:52.259Z,27.07
2022-07-30T15:28:19.566Z,27.11
2022-07-30T15:30:46.315Z,27.02
2022-07-30T15:33:13.009Z,26.99
2022-07-30T15:35:39.702Z,26.95
2022-07-30T15:38:06.359Z,26.89
2022-07-30T15:40:35.100Z,26.82
2022-07-30T15:43:01.782Z,26.82
2022-07-30T15:45:50.091Z,26.86
2022-07-30T15:48:26.674Z,26.91
2022-07-30T15:51:01.345Z,26.87
2022-07-30T15:53:28.090Z,26.90
2022-07-30T15:55:54.736Z,26.85
2022-07-30T15:58:21.368Z,26.89
2022-07-30T16:00:48.384Z,26.92
2022-07-30T16:03:15.139Z,26.90
2022-07-30T16:05:51.499Z,26.85
2022-07-30T16:08:20.110Z,26.88
2022-07-30T16:10:46.805Z,26.77
2022-07-30T16:13:13.502Z,26.78
2022-07-30T16:15:40.165Z,26.80
2022-07-30T16:18:06.894Z,26.81
2022-07-30T16:20:33.599Z,26.84
2022-07-30T16:23:00.689Z,26.87
2022-07-30T16:25:28.546Z,26.87
2022-07-30T16:27:55.273Z,26.87
2022-07-30T16:30:24.263Z,26.86
2022-07-30T16:32:56.160Z,26.84
2022-07-30T16:35:23.154Z,26.84
2022-07-30T16:37:49.814Z,26.81
2022-07-30T16:40:16.604Z,26.81
2022-07-30T16:42:43.376Z,26.81
2022-07-30T16:45:10.419Z,26.75
2022-07-30T16:47:37.099Z,26.76
2022-07-30T16:50:04.210Z,26.76
2022-07-30T16:52:30.934Z,26.75
2022-07-30T16:54:57.704Z,26.72
2022-07-30T16:57:24.401Z,26.71
2022-07-30T16:59:51.105Z,26.68
2022-07-30T17:02:17.866Z,26.70
2022-07-30T17:04:44.791Z,26.70
2022-07-30T17:07:11.453Z,26.69
2022-07-30T17:09:38.097Z,26.62
2022-07-30T17:12:11.947Z,26.55
2022-07-30T17:14:40.812Z,26.55
2022-07-30T17:17:38.334Z,26.47
2022-07-30T17:20:06.432Z,26.58
2022-07-30T17:22:33.415Z,26.60
2022-07-30T17:25:00.081Z,26.62
2022-07-30T17:27:28.157Z,26.60
2022-07-30T17:29:54.886Z,26.60
2022-07-30T17:32:21.922Z,26.54
2022-07-30T17:34:49.103Z,26.50
2022-07-30T17:37:16.106Z,26.54
2022-07-30T17:40:23.905Z,26.58
2022-07-30T17:42:35.786Z,26.54
2022-07-30T17:45:02.588Z,26.50
2022-07-30T17:47:29.274Z,26.53
2022-07-30T17:49:55.964Z,26.52
2022-07-30T17:52:26.766Z,26.49
2022-07-30T17:54:54.279Z,26.49
2022-07-30T17:57:21.162Z,26.48
2022-07-30T17:59:47.891Z,26.44
2022-07-30T18:02:14.738Z,26.42
2022-07-30T18:04:43.611Z,26.41
2022-07-30T18:07:10.244Z,26.40
2022-07-30T18:09:40.053Z,26.40
2022-07-30T18:12:07.296Z,26.33
2022-07-30T18:14:33.956Z,26.27
2022-07-30T18:17:02.740Z,26.26
2022-07-30T18:19:29.406Z,26.31
2022-07-30T18:21:56.142Z,26.31
2022-07-30T18:24:24.723Z,26.30
2022-07-30T18:26:51.797Z,26.31
2022-07-30T18:29:18.461Z,26.28
2022-07-30T18:31:45.215Z,26.27
2022-07-30T18:34:11.949Z,26.23
2022-07-30T18:36:39.667Z,26.21
2022-07-30T18:39:06.414Z,26.15
2022-07-30T18:41:33.073Z,26.14
2022-07-30T18:43:59.785Z,26.11
2022-07-30T18:46:26.478Z,26.06
2022-07-30T18:48:53.265Z,26.00
2022-07-30T18:51:19.993Z,25.99
2022-07-30T18:54:17.908Z,25.82
2022-07-30T18:56:44.588Z,25.90
2022-07-30T18:59:11.287Z,25.86
2022-07-30T19:01:39.323Z,25.83
2022-07-30T19:04:06.394Z,25.81
2022-07-30T19:06:33.034Z,25.75
2022-07-30T19:09:00.115Z,25.68
2022-07-30T19:11:26.880Z,25.64
2022-07-30T19:13:54.608Z,25.57
2022-07-30T19:16:21.325Z,25.49
2022-07-30T19:18:48.379Z,25.43
2022-07-30T19:21:15.065Z,25.40
2022-07-30T19:23:41.779Z,25.39
2022-07-30T19:26:08.882Z,25.33
2022-07-30T19:28:36.261Z,25.29
2022-07-30T19:31:03.039Z,25.25
2022-07-30T19:33:29.696Z,25.20
2022-07-30T19:35:56.343Z,25.18
2022-07-30T19:38:23.904Z,25.08
2022-07-30T19:40:51.225Z,25.08
2022-07-30T19:43:17.979Z,25.03
2022-07-30T19:45:50.830Z,24.96
2022-07-30T19:48:28.935Z,24.92
2022-07-30T19:50:59.048Z,24.89
2022-07-30T19:53:26.146Z,24.81
2022-07-30T19:55:55.726Z,24.82
2022-07-30T19:58:22.614Z,24.79
2022-07-30T20:00:51.663Z,24.76
2022-07-30T20:03:25.497Z,24.72
2022-07-30T20:05:54.919Z,24.66
2022-07-30T20:08:25.402Z,24.64
2022-07-30T20:10:52.203Z,24.62
2022-07-30T20:13:18.983Z,24.59
2022-07-30T20:15:46.477Z,24.58
2022-07-30T20:18:13.369Z,24.56
2022-07-30T20:20:41.397Z,24.55
2022-07-30T20:23:08.330Z,24.51
2022-07-30T20:25:37.241Z,24.58
2022-07-30T20:28:05.106Z,24.58
2022-07-30T20:30:32.603Z,24.60
2022-07-30T20:33:04.747Z,24.48
2022-07-30T20:35:33.886Z,24.59
2022-07-30T20:38:10.178Z,24.52
2022-07-30T20:40:37.095Z,24.47
2022-07-30T20:43:05.967Z,24.41
2022-07-30T20:45:37.775Z,24.39
2022-07-30T20:48:08.450Z,24.34
2022-07-30T20:50:45.975Z,24.34
2022-07-30T20:53:13.331Z,24.30
2022-07-30T20:55:40.936Z,24.25
2022-07-30T20:58:16.729Z,24.16
2022-07-30T21:00:49.520Z,24.13
2022-07-30T21:03:21.302Z,24.07
2022-07-30T21:05:48.511Z,24.03
2022-07-30T21:08:18.053Z,24.07
2022-07-30T21:10:46.127Z,23.98
2022-07-30T21:13:13.624Z,24.02
2022-07-30T21:16:01.807Z,24.02
2022-07-30T21:18:27.658Z,24.04
2022-07-30T21:20:54.291Z,24.02
2022-07-30T21:23:25.917Z,24.00
2022-07-30T21:26:00.428Z,23.99
2022-07-30T21:28:35.147Z,23.93
2022-07-30T21:31:02.326Z,23.47
2022-07-30T21:33:31.121Z,23.85
2022-07-30T21:35:59.277Z,23.83
2022-07-30T21:38:30.575Z,23.81
2022-07-30T21:40:58.287Z,23.79
2022-07-30T21:43:29.408Z,23.78
2022-07-30T21:45:57.656Z,23.70
2022-07-30T21:48:24.916Z,23.68
2022-07-30T21:50:54.166Z,23.66
2022-07-30T21:53:29.954Z,23.60
2022-07-30T21:56:07.524Z,23.55
2022-07-30T21:58:34.222Z,23.49
2022-07-30T22:04:03.095Z,23.38
2022-07-30T22:06:40.081Z,23.28
2022-07-30T22:09:19.629Z,23.33
2022-07-30T22:11:56.281Z,23.32
2022-07-30T22:14:25.531Z,23.34
2022-07-30T22:16:52.862Z,23.29
2022-07-30T22:19:21.640Z,23.28
2022-07-30T22:21:49.230Z,23.25
2022-07-30T22:24:29.431Z,23.26
2022-07-30T22:26:59.951Z,23.14
2022-07-30T22:29:34.371Z,23.16
2022-07-30T22:32:03.938Z,23.16
2022-07-30T22:34:31.197Z,23.18
2022-07-30T22:36:58.142Z,23.16
2022-07-30T22:39:31.689Z,23.17
2022-07-30T22:42:12.705Z,23.07
2022-07-30T22:44:39.610Z,23.05
2022-07-30T22:47:51.483Z,22.87
2022-07-30T22:50:26.111Z,23.09
2022-07-30T22:53:14.379Z,23.10
2022-07-30T22:55:41.503Z,22.95
2022-07-30T22:58:08.167Z,22.95
2022-07-30T23:00:36.805Z,22.90
2022-07-30T23:03:05.193Z,22.83
2022-07-30T23:05:35.479Z,22.81
2022-07-30T23:08:03.434Z,22.80
2022-07-30T23:10:30.251Z,22.83
2022-07-30T23:12:28.081Z,23.40
2022-07-30T23:12:58.934Z,22.85
2022-07-30T23:15:25.610Z,22.80
2022-07-30T23:17:53.362Z,22.75
2022-07-30T23:20:20.952Z,22.72
2022-07-30T23:22:48.004Z,22.76
2022-07-30T23:25:14.701Z,22.73
2022-07-30T23:27:46.660Z,22.62
2022-07-30T23:30:13.799Z,22.65
2022-07-30T23:32:40.566Z,22.59
2022-07-30T23:35:08.843Z,22.60
2022-07-30T23:37:47.596Z,22.59
2022-07-30T23:40:19.416Z,22.49
2022-07-30T23:42:47.468Z,22.51
2022-07-30T23:45:14.474Z,22.52
2022-07-30T23:47:58.018Z,22.49
2022-07-30T23:50:27.858Z,22.48
2022-07-30T23:52:54.526Z,22.48
2022-07-30T23:55:21.241Z,22.41
2022-07-30T23:57:48.046Z,22.38
